Time;durP1;ratioP1;P1;durP2;ratioP2;P2;SDS_P1;SDS_P2;PMS_P1;PMS_P2;Temp;Humidity;BMP_temperature;BMP_pressure;BME280_temperature;BME280_humidity;BME280_pressure;Samples;Min_cycle;Max_cycle;Signal;HPM_P1;HPM_P2
2023/04/19 00:02:09;;;;;;;;;;;8.90;99.90;;;;;;5039238;28;19956;-63
2023/04/19 00:04:43;;;;;;;;;;;8.90;99.90;;;;;;5040769;28;19928;-63
2023/04/19 00:07:17;;;;;;;;;;;8.80;99.90;;;;;;5039869;28;19929;-64
2023/04/19 00:09:48;;;;;;;;;;;8.80;99.90;;;;;;5038174;28;19928;-64
2023/04/19 00:12:20;;;;;;;;;;;8.80;99.90;;;;;;5036250;28;20018;-63
2023/04/19 00:14:52;;;;;;;;;;;8.80;99.90;;;;;;5036273;28;19986;-63
2023/04/19 00:17:23;;;;;;;;;;;8.80;99.90;;;;;;5040346;28;19991;-63
2023/04/19 00:19:55;;;;;;;;;;;8.80;99.90;;;;;;5037269;28;19978;-63
2023/04/19 00:22:27;;;;;;;;;;;8.80;99.90;;;;;;5035297;28;19929;-63
2023/04/19 00:24:59;;;;;;;;;;;8.80;99.90;;;;;;5040087;28;19974;-63
2023/04/19 00:27:31;;;;;;;;;;;8.70;99.90;;;;;;5040715;28;20024;-64
2023/04/19 00:30:04;;;;;;;;;;;8.70;99.90;;;;;;5023461;28;20406;-63
2023/04/19 00:32:36;;;;;;;;;;;8.70;99.90;;;;;;5020001;28;19926;-64
2023/04/19 00:35:07;;;;;;;;;;;8.70;99.90;;;;;;5025596;28;19971;-63
2023/04/19 00:37:39;;;;;;;;;;;8.70;99.90;;;;;;5036605;28;19936;-63
2023/04/19 00:40:12;;;;;;;;;;;8.80;99.90;;;;;;5012933;28;19929;-63
2023/04/19 00:42:44;;;;;;;;;;;8.70;99.90;;;;;;5020265;28;19932;-63
2023/04/19 00:45:15;;;;;;;;;;;8.70;99.90;;;;;;5039440;28;19925;-63
2023/04/19 00:47:47;;;;;;;;;;;8.70;99.90;;;;;;5039031;28;19951;-63
2023/04/19 00:50:19;;;;;;;;;;;8.70;99.90;;;;;;5021288;28;19932;-63
2023/04/19 00:52:52;;;;;;;;;;;8.70;99.90;;;;;;5038204;28;19925;-64
2023/04/19 00:55:24;;;;;;;;;;;8.70;99.90;;;;;;5037704;28;19932;-63
2023/04/19 00:57:56;;;;;;;;;;;8.70;99.90;;;;;;5023824;28;20309;-63
2023/04/19 01:00:23;;;;;;;;;;;8.60;99.90;;;;;;5036884;28;19929;-63
2023/04/19 01:02:55;;;;;;;;;;;8.60;99.90;;;;;;5036577;28;19925;-63
2023/04/19 01:05:26;;;;;;;;;;;8.60;99.90;;;;;;5038298;28;19929;-63
2023/04/19 01:07:58;;;;;;;;;;;8.60;99.90;;;;;;5039725;28;19932;-64
2023/04/19 01:10:30;;;;;;;;;;;8.60;99.90;;;;;;5042329;28;19933;-64
2023/04/19 01:12:58;;;;;;;;;;;8.60;99.90;;;;;;5022489;28;19928;-64
2023/04/19 01:15:30;;;;;;;;;;;8.60;99.90;;;;;;5036508;28;19987;-64
2023/04/19 01:17:57;;;;;;;;;;;8.60;99.90;;;;;;5038374;28;19978;-64
2023/04/19 01:20:29;;;;;;;;;;;8.60;99.90;;;;;;5037409;28;20306;-64
2023/04/19 01:23:01;;;;;;;;;;;8.60;99.90;;;;;;5035382;28;19925;-63
2023/04/19 01:25:32;;;;;;;;;;;8.60;99.90;;;;;;5033968;28;19986;-63
2023/04/19 01:28:05;;;;;;;;;;;8.60;99.90;;;;;;5037023;28;20301;-63
2023/04/19 01:30:36;;;;;;;;;;;8.50;99.90;;;;;;5039185;28;19929;-63
2023/04/19 01:33:08;;;;;;;;;;;8.60;99.90;;;;;;5043229;28;19929;-63
2023/04/19 01:35:40;;;;;;;;;;;8.50;99.90;;;;;;5044716;28;19929;-64
2023/04/19 01:38:13;;;;;;;;;;;8.50;99.90;;;;;;5030286;28;19929;-63
2023/04/19 01:40:44;;;;;;;;;;;8.50;99.90;;;;;;5040154;28;19925;-63
2023/04/19 01:43:16;;;;;;;;;;;8.50;99.90;;;;;;5027067;28;20386;-63
2023/04/19 01:45:43;;;;;;;;;;;8.50;99.90;;;;;;5040444;28;19925;-64
2023/04/19 01:48:15;;;;;;;;;;;8.50;99.90;;;;;;5024300;28;19929;-63
2023/04/19 01:50:47;;;;;;;;;;;8.40;99.90;;;;;;5042606;28;19929;-64
2023/04/19 01:53:18;;;;;;;;;;;8.50;99.90;;;;;;5044084;28;19933;-64
2023/04/19 01:55:50;;;;;;;;;;;8.50;99.90;;;;;;5045463;28;19929;-64
2023/04/19 01:58:21;;;;;;;;;;;8.50;99.90;;;;;;5024040;28;19952;-63
2023/04/19 02:00:53;;;;;;;;;;;8.50;99.90;;;;;;5039690;28;19932;-63
2023/04/19 02:03:25;;;;;;;;;;;8.50;99.90;;;;;;5040755;28;19932;-63
2023/04/19 02:05:51;;;;;;;;;;;8.40;99.90;;;;;;5040633;28;19928;-64
2023/04/19 02:08:23;;;;;;;;;;;8.50;99.90;;;;;;5040733;28;19925;-63
2023/04/19 02:10:55;;;;;;;;;;;8.50;99.90;;;;;;5039735;28;19925;-63
2023/04/19 02:13:22;;;;;;;;;;;8.50;99.90;;;;;;5038415;28;19925;-63
2023/04/19 02:15:54;;;;;;;;;;;8.50;99.90;;;;;;5035530;28;19929;-64
2023/04/19 02:18:26;;;;;;;;;;;8.50;99.90;;;;;;5039765;28;19983;-64
2023/04/19 02:20:52;;;;;;;;;;;8.50;99.90;;;;;;5038473;28;19975;-63
2023/04/19 02:23:19;;;;;;;;;;;8.40;99.90;;;;;;5040144;28;19932;-63
2023/04/19 02:25:46;;;;;;;;;;;8.40;99.90;;;;;;5041498;28;19929;-63
2023/04/19 02:28:17;;;;;;;;;;;8.40;99.90;;;;;;5040319;28;20651;-64
2023/04/19 02:30:49;;;;;;;;;;;8.40;99.90;;;;;;5027105;28;19925;-64
2023/04/19 02:33:21;;;;;;;;;;;8.40;99.90;;;;;;5039576;28;19932;-63
2023/04/19 02:35:53;;;;;;;;;;;8.40;99.90;;;;;;5041973;28;19936;-63
2023/04/19 02:38:25;;;;;;;;;;;8.40;99.90;;;;;;5043884;28;19929;-63
2023/04/19 02:40:57;;;;;;;;;;;8.30;99.90;;;;;;5044759;28;19929;-64
2023/04/19 02:43:29;;;;;;;;;;;8.30;99.90;;;;;;5046147;28;19998;-63
2023/04/19 02:46:01;;;;;;;;;;;8.30;99.90;;;;;;5043071;28;19999;-63
2023/04/19 02:48:32;;;;;;;;;;;8.30;99.90;;;;;;5037587;28;19986;-63
2023/04/19 02:51:04;;;;;;;;;;;8.30;99.90;;;;;;5038835;28;19929;-63
2023/04/19 02:53:37;;;;;;;;;;;8.30;99.90;;;;;;5055101;28;20453;-63
2023/04/19 02:56:09;;;;;;;;;;;8.30;99.90;;;;;;5037981;28;19925;-64
2023/04/19 02:58:41;;;;;;;;;;;8.30;99.90;;;;;;5038268;28;19974;-63
2023/04/19 03:01:12;;;;;;;;;;;8.30;99.90;;;;;;5037647;28;19925;-64
2023/04/19 03:03:44;;;;;;;;;;;8.20;99.90;;;;;;5042933;28;19929;-64
2023/04/19 03:06:16;;;;;;;;;;;8.20;99.90;;;;;;5026258;28;19926;-63
2023/04/19 03:08:48;;;;;;;;;;;8.20;99.90;;;;;;5042785;28;19935;-64
2023/04/19 03:11:17;;;;;;;;;;;8.20;99.90;;;;;;5039175;28;20007;-64
2023/04/19 03:13:48;;;;;;;;;;;8.20;99.90;;;;;;5040173;28;19937;-64
2023/04/19 03:16:20;;;;;;;;;;;8.30;99.90;;;;;;5021409;28;20465;-63
2023/04/19 03:18:52;;;;;;;;;;;8.30;99.90;;;;;;5039361;28;19929;-63
2023/04/19 03:21:28;;;;;;;;;;;8.30;99.90;;;;;;5042102;28;19925;-63
2023/04/19 03:24:00;;;;;;;;;;;8.30;99.90;;;;;;5032730;28;19924;-63
2023/04/19 03:26:35;;;;;;;;;;;8.30;99.90;;;;;;5032925;28;19975;-63
2023/04/19 03:29:07;;;;;;;;;;;8.30;99.90;;;;;;5045742;28;19924;-64
2023/04/19 03:31:50;;;;;;;;;;;8.20;99.90;;;;;;5030743;28;20290;-64
2023/04/19 03:34:22;;;;;;;;;;;8.20;99.90;;;;;;5043831;28;20011;-63
2023/04/19 03:36:54;;;;;;;;;;;8.20;99.90;;;;;;5040243;28;20348;-63
2023/04/19 03:39:20;;;;;;;;;;;8.20;99.90;;;;;;5039562;28;19936;-63
2023/04/19 03:41:57;;;;;;;;;;;8.20;99.90;;;;;;5038498;28;19925;-64
2023/04/19 03:44:34;;;;;;;;;;;8.20;99.90;;;;;;5037845;28;19954;-63
2023/04/19 03:47:03;;;;;;;;;;;8.20;99.90;;;;;;5058752;28;19925;-63
2023/04/19 03:49:40;;;;;;;;;;;8.20;99.90;;;;;;5026897;28;19956;-63
2023/04/19 03:52:12;;;;;;;;;;;8.20;99.90;;;;;;5043533;28;19999;-63
2023/04/19 03:54:44;;;;;;;;;;;8.20;99.90;;;;;;5042436;28;19983;-63
2023/04/19 03:57:27;;;;;;;;;;;8.20;99.90;;;;;;5041437;28;19925;-64
2023/04/19 04:00:06;;;;;;;;;;;8.20;99.90;;;;;;5019368;28;19932;-63
2023/04/19 04:02:40;;;;;;;;;;;8.20;99.90;;;;;;5039578;28;20005;-64
2023/04/19 04:05:12;;;;;;;;;;;8.20;99.90;;;;;;5043086;28;19925;-63
2023/04/19 04:07:44;;;;;;;;;;;8.20;99.90;;;;;;5040767;28;20469;-64
2023/04/19 04:10:17;;;;;;;;;;;8.20;99.90;;;;;;5025634;28;19979;-64
2023/04/19 04:12:49;;;;;;;;;;;8.20;99.90;;;;;;5046668;28;19982;-66
2023/04/19 04:15:37;;;;;;;;;;;8.20;99.90;;;;;;5030998;28;19932;-65
2023/04/19 04:18:11;;;;;;;;;;;8.20;99.90;;;;;;5041627;28;20607;-64
2023/04/19 04:20:43;;;;;;;;;;;8.30;99.90;;;;;;5035154;28;19948;-64
2023/04/19 04:23:15;;;;;;;;;;;8.40;99.90;;;;;;5041504;28;19932;-64
2023/04/19 04:25:58;;;;;;;;;;;8.30;99.90;;;;;;5036726;28;19979;-63
2023/04/19 04:28:43;;;;;;;;;;;8.30;99.90;;;;;;5034031;28;19926;-64
2023/04/19 04:31:17;;;;;;;;;;;8.30;99.90;;;;;;5026801;28;20039;-64
2023/04/19 04:33:49;;;;;;;;;;;8.30;99.90;;;;;;5044454;28;19925;-64
2023/04/19 04:36:22;;;;;;;;;;;8.30;99.90;;;;;;5029933;28;19940;-64
2023/04/19 04:38:54;;;;;;;;;;;8.20;99.90;;;;;;5035642;28;19972;-64
2023/04/19 04:41:26;;;;;;;;;;;8.30;99.90;;;;;;5037884;28;19925;-64
2023/04/19 04:43:59;;;;;;;;;;;8.30;99.90;;;;;;5043922;28;20451;-64
2023/04/19 04:46:31;;;;;;;;;;;8.30;99.90;;;;;;5053271;28;19924;-64
2023/04/19 04:49:03;;;;;;;;;;;8.30;99.90;;;;;;5024483;28;19937;-64
2023/04/19 04:51:36;;;;;;;;;;;8.30;99.90;;;;;;5037354;28;19933;-64
2023/04/19 04:54:08;;;;;;;;;;;8.30;99.90;;;;;;5022893;28;19982;-64
2023/04/19 04:56:40;;;;;;;;;;;8.30;99.90;;;;;;5040086;28;19972;-64
2023/04/19 04:59:08;;;;;;;;;;;8.30;99.90;;;;;;5042639;28;20401;-64
2023/04/19 05:01:43;;;;;;;;;;;8.30;99.90;;;;;;5017437;28;20385;-64
2023/04/19 05:04:15;;;;;;;;;;;8.30;99.90;;;;;;5038124;28;19968;-64
2023/04/19 05:06:47;;;;;;;;;;;8.30;99.90;;;;;;5040436;28;19930;-64
2023/04/19 05:09:23;;;;;;;;;;;8.30;99.90;;;;;;5035815;28;19932;-64
2023/04/19 05:11:56;;;;;;;;;;;8.30;99.90;;;;;;5037321;28;20312;-64
2023/04/19 05:14:29;;;;;;;;;;;8.30;99.90;;;;;;5036479;28;19933;-64
2023/04/19 05:17:00;;;;;;;;;;;8.30;99.90;;;;;;5054539;28;19929;-64
2023/04/19 05:19:32;;;;;;;;;;;8.30;99.90;;;;;;5039897;28;20016;-64
2023/04/19 05:22:06;;;;;;;;;;;8.30;99.90;;;;;;5021042;28;19932;-64
2023/04/19 05:24:38;;;;;;;;;;;8.30;99.90;;;;;;5045590;28;19931;-63
2023/04/19 05:27:10;;;;;;;;;;;8.30;99.90;;;;;;5024109;28;19936;-64
2023/04/19 05:29:42;;;;;;;;;;;8.30;99.90;;;;;;5023401;28;19925;-63
2023/04/19 05:32:14;;;;;;;;;;;8.30;99.90;;;;;;5033986;28;19925;-64
2023/04/19 05:34:53;;;;;;;;;;;8.30;99.90;;;;;;5036942;28;19929;-64
2023/04/19 05:37:27;;;;;;;;;;;8.30;99.90;;;;;;5038817;28;20004;-64
2023/04/19 05:39:59;;;;;;;;;;;8.30;99.90;;;;;;5039356;28;20402;-64
2023/04/19 05:42:31;;;;;;;;;;;8.30;99.90;;;;;;5032824;28;19995;-64
2023/04/19 05:45:05;;;;;;;;;;;8.30;99.90;;;;;;5037711;28;19932;-63
2023/04/19 05:47:33;;;;;;;;;;;8.30;99.90;;;;;;5046167;28;19933;-64
2023/04/19 05:50:31;;;;;;;;;;;8.30;99.90;;;;;;5028451;28;20401;-63
2023/04/19 05:53:28;;;;;;;;;;;8.30;99.90;;;;;;5034748;28;19925;-64
2023/04/19 05:55:56;;;;;;;;;;;8.30;99.90;;;;;;5020675;28;19929;-64
2023/04/19 05:58:28;;;;;;;;;;;8.30;99.90;;;;;;5038074;28;19925;-64
2023/04/19 06:01:01;;;;;;;;;;;8.30;99.90;;;;;;5022772;28;19925;-64
2023/04/19 06:03:32;;;;;;;;;;;8.30;99.90;;;;;;5036961;28;19929;-64
2023/04/19 06:05:59;;;;;;;;;;;8.30;99.90;;;;;;5032807;28;20020;-64
2023/04/19 06:08:31;;;;;;;;;;;8.30;99.90;;;;;;5026944;28;20408;-64
2023/04/19 06:11:03;;;;;;;;;;;8.40;99.90;;;;;;5026051;28;20382;-64
2023/04/19 06:13:35;;;;;;;;;;;8.40;99.90;;;;;;5042284;28;19971;-64
2023/04/19 06:16:07;;;;;;;;;;;8.40;99.90;;;;;;5036139;28;20372;-64
2023/04/19 06:18:39;;;;;;;;;;;8.40;99.90;;;;;;5041292;28;19955;-64
2023/04/19 06:21:11;;;;;;;;;;;8.40;99.90;;;;;;5040199;28;20393;-64
2023/04/19 06:23:38;;;;;;;;;;;8.30;99.90;;;;;;5046060;28;20019;-64
2023/04/19 06:26:10;;;;;;;;;;;8.40;99.90;;;;;;5043625;28;19932;-64
2023/04/19 06:28:42;;;;;;;;;;;8.40;99.90;;;;;;5048922;28;20412;-64
2023/04/19 06:31:13;;;;;;;;;;;8.40;99.90;;;;;;5043490;28;19929;-64
2023/04/19 06:33:45;;;;;;;;;;;8.50;99.90;;;;;;5046605;28;19933;-64
2023/04/19 06:36:12;;;;;;;;;;;8.50;99.90;;;;;;5036839;28;19936;-64
2023/04/19 06:38:45;;;;;;;;;;;8.50;99.90;;;;;;5036843;28;20403;-64
2023/04/19 06:41:16;;;;;;;;;;;8.50;99.90;;;;;;5039230;28;19979;-64
2023/04/19 06:43:48;;;;;;;;;;;8.50;99.90;;;;;;5041518;28;19936;-64
2023/04/19 06:46:20;;;;;;;;;;;8.60;99.90;;;;;;5042986;28;19925;-64
2023/04/19 06:48:51;;;;;;;;;;;8.60;99.90;;;;;;5036880;28;19929;-64
2023/04/19 06:51:23;;;;;;;;;;;8.60;99.90;;;;;;5042831;28;20671;-64
2023/04/19 06:53:50;;;;;;;;;;;8.60;99.90;;;;;;5050829;28;19998;-64
2023/04/19 06:56:46;;;;;;;;;;;8.70;99.90;;;;;;5043702;28;19987;-64
2023/04/19 06:59:19;;;;;;;;;;;8.60;99.90;;;;;;5034579;28;20389;-64
2023/04/19 07:01:51;;;;;;;;;;;8.60;99.90;;;;;;5037253;28;20465;-64
2023/04/19 07:04:23;;;;;;;;;;;8.60;99.90;;;;;;5037462;28;19983;-64
2023/04/19 07:06:54;;;;;;;;;;;8.60;99.90;;;;;;5042247;28;19929;-64
2023/04/19 07:09:27;;;;;;;;;;;8.60;99.90;;;;;;5044432;28;19955;-64
2023/04/19 07:11:56;;;;;;;;;;;8.70;99.90;;;;;;5045525;28;19929;-64
2023/04/19 07:14:28;;;;;;;;;;;8.70;99.90;;;;;;5042229;28;19933;-64
2023/04/19 07:16:59;;;;;;;;;;;8.70;99.90;;;;;;5037793;28;19929;-64
2023/04/19 07:19:31;;;;;;;;;;;8.70;99.90;;;;;;5038059;28;19925;-68
2023/04/19 07:21:58;;;;;;;;;;;8.70;99.90;;;;;;5036413;28;19979;-63
2023/04/19 07:24:28;;;;;;;;;;;8.70;99.90;;;;;;5041709;28;19925;-64
2023/04/19 07:27:00;;;;;;;;;;;8.70;99.90;;;;;;5035241;28;19925;-65
2023/04/19 07:29:27;;;;;;;;;;;8.80;99.90;;;;;;5042678;28;20400;-63
2023/04/19 07:32:00;;;;;;;;;;;8.80;99.90;;;;;;5044136;28;19979;-63
2023/04/19 07:34:32;;;;;;;;;;;8.90;99.90;;;;;;5043790;28;19932;-63
2023/04/19 07:36:58;;;;;;;;;;;8.90;99.90;;;;;;5047450;28;19924;-63
2023/04/19 07:39:30;;;;;;;;;;;8.90;99.90;;;;;;5020037;28;19929;-62
2023/04/19 07:42:02;;;;;;;;;;;8.90;99.90;;;;;;5041250;28;20413;-63
2023/04/19 07:44:33;;;;;;;;;;;8.90;99.90;;;;;;5034296;28;19926;-63
2023/04/19 07:47:05;;;;;;;;;;;8.90;99.90;;;;;;5037194;28;20413;-63
2023/04/19 07:49:37;;;;;;;;;;;8.90;99.90;;;;;;5039830;28;19932;-63
2023/04/19 07:52:06;;;;;;;;;;;8.90;99.90;;;;;;5041753;28;19987;-63
2023/04/19 07:54:38;;;;;;;;;;;9.00;99.90;;;;;;5038386;28;19978;-66
2023/04/19 07:57:10;;;;;;;;;;;9.00;99.90;;;;;;5039789;28;19951;-63
2023/04/19 07:59:41;;;;;;;;;;;9.10;99.90;;;;;;5038896;28;20487;-63
2023/04/19 08:02:15;;;;;;;;;;;9.20;99.90;;;;;;5032095;28;19925;-63
2023/04/19 08:04:48;;;;;;;;;;;9.30;99.90;;;;;;5035544;28;20321;-63
2023/04/19 08:07:20;;;;;;;;;;;9.30;99.90;;;;;;5039978;28;19929;-63
2023/04/19 08:09:52;;;;;;;;;;;9.40;99.90;;;;;;5043701;28;20352;-63
2023/04/19 08:12:24;;;;;;;;;;;9.50;99.90;;;;;;5041524;28;20348;-63
2023/04/19 08:14:56;;;;;;;;;;;9.50;99.90;;;;;;5044062;28;20048;-63
2023/04/19 08:17:27;;;;;;;;;;;9.50;99.90;;;;;;5039466;28;19933;-63
2023/04/19 08:19:59;;;;;;;;;;;9.50;99.90;;;;;;5036266;28;19994;-63
2023/04/19 08:22:31;;;;;;;;;;;9.60;99.90;;;;;;5036181;28;19929;-63
2023/04/19 08:25:02;;;;;;;;;;;9.60;99.90;;;;;;5040025;28;19951;-63
2023/04/19 08:27:34;;;;;;;;;;;9.80;99.90;;;;;;5049478;28;19980;-63
2023/04/19 08:30:06;;;;;;;;;;;9.80;99.90;;;;;;5041833;28;19979;-63
2023/04/19 08:32:38;;;;;;;;;;;9.80;99.90;;;;;;5040071;28;19925;-64
2023/04/19 08:35:10;;;;;;;;;;;9.80;99.90;;;;;;5037933;28;19952;-63
2023/04/19 08:37:41;;;;;;;;;;;9.90;99.90;;;;;;5038526;28;19926;-63
2023/04/19 08:40:15;;;;;;;;;;;10.00;99.90;;;;;;5034751;28;19933;-63
2023/04/19 08:42:47;;;;;;;;;;;10.00;99.90;;;;;;5036400;28;19925;-63
2023/04/19 08:45:20;;;;;;;;;;;10.10;99.90;;;;;;5037483;28;19928;-63
2023/04/19 08:47:52;;;;;;;;;;;10.10;99.90;;;;;;5040578;28;19929;-63
2023/04/19 08:50:24;;;;;;;;;;;10.10;99.90;;;;;;5035955;28;19929;-63
2023/04/19 08:52:57;;;;;;;;;;;10.10;99.90;;;;;;5043305;28;20396;-63
2023/04/19 08:55:29;;;;;;;;;;;10.10;99.90;;;;;;5036073;28;19954;-63
2023/04/19 08:58:02;;;;;;;;;;;10.20;99.90;;;;;;5037606;28;19925;-63
2023/04/19 09:00:37;;;;;;;;;;;10.30;99.90;;;;;;5036706;28;19925;-63
2023/04/19 09:03:05;;;;;;;;;;;10.50;99.90;;;;;;5038507;28;19925;-63
2023/04/19 09:05:36;;;;;;;;;;;10.60;99.90;;;;;;5038886;28;19929;-63
2023/04/19 09:08:26;;;;;;;;;;;10.80;99.90;;;;;;5026015;28;19979;-63
2023/04/19 09:10:59;;;;;;;;;;;10.80;99.90;;;;;;5024723;28;19925;-63
2023/04/19 09:13:31;;;;;;;;;;;10.80;99.90;;;;;;5040381;28;19925;-63
2023/04/19 09:16:03;;;;;;;;;;;10.90;99.90;;;;;;5034041;28;19952;-63
2023/04/19 09:18:52;;;;;;;;;;;10.90;99.90;;;;;;5038809;28;19975;-63
2023/04/19 09:21:30;;;;;;;;;;;10.80;99.90;;;;;;5040348;28;20466;-63
2023/04/19 09:24:02;;;;;;;;;;;10.80;99.90;;;;;;5039448;28;19933;-63
2023/04/19 09:26:34;;;;;;;;;;;10.80;99.90;;;;;;5041028;28;19925;-63
2023/04/19 09:29:06;;;;;;;;;;;10.80;99.90;;;;;;5038397;28;19940;-63
2023/04/19 09:31:38;;;;;;;;;;;10.80;99.90;;;;;;5028049;28;20347;-63
2023/04/19 09:34:13;;;;;;;;;;;10.90;99.90;;;;;;5045083;28;20290;-63
2023/04/19 09:36:45;;;;;;;;;;;10.90;99.90;;;;;;5040521;28;19929;-63
2023/04/19 09:39:32;;;;;;;;;;;10.90;99.90;;;;;;5046454;28;20435;-63
2023/04/19 09:42:04;;;;;;;;;;;10.80;99.90;;;;;;5041084;28;19925;-63
2023/04/19 09:44:35;;;;;;;;;;;10.80;99.90;;;;;;5039651;28;20379;-63
2023/04/19 09:47:20;;;;;;;;;;;10.80;99.90;;;;;;5045123;28;19955;-63
2023/04/19 09:50:05;;;;;;;;;;;10.70;99.90;;;;;;5042498;28;19925;-63
2023/04/19 09:52:37;;;;;;;;;;;10.70;99.90;;;;;;5043236;28;19974;-63
2023/04/19 09:55:09;;;;;;;;;;;10.80;99.90;;;;;;5039529;28;20524;-63
2023/04/19 09:57:41;;;;;;;;;;;10.80;99.90;;;;;;5038476;28;19936;-63
2023/04/19 10:00:14;;;;;;;;;;;10.80;99.90;;;;;;5043634;28;19936;-63
2023/04/19 10:02:53;;;;;;;;;;;10.80;99.90;;;;;;5039095;28;19933;-63
2023/04/19 10:05:24;;;;;;;;;;;10.90;99.90;;;;;;5040509;28;20439;-63
2023/04/19 10:07:58;;;;;;;;;;;10.90;99.90;;;;;;5044228;28;19924;-63
2023/04/19 10:10:31;;;;;;;;;;;11.00;99.90;;;;;;5042270;28;19929;-62
2023/04/19 10:13:03;;;;;;;;;;;11.00;99.90;;;;;;5044752;28;19955;-63
2023/04/19 10:15:36;;;;;;;;;;;11.10;99.90;;;;;;5041603;28;19929;-63
2023/04/19 10:18:08;;;;;;;;;;;11.10;99.90;;;;;;5041288;28;19929;-63
2023/04/19 10:20:40;;;;;;;;;;;11.10;99.90;;;;;;5041180;28;20306;-63
2023/04/19 10:23:12;;;;;;;;;;;11.10;99.90;;;;;;5043672;28;19992;-63
2023/04/19 10:25:47;;;;;;;;;;;11.10;99.90;;;;;;5045511;28;19933;-63
2023/04/19 10:28:18;;;;;;;;;;;11.20;99.90;;;;;;5037346;28;19929;-63
2023/04/19 10:30:54;;;;;;;;;;;11.20;99.90;;;;;;5042200;28;19929;-63
2023/04/19 10:33:27;;;;;;;;;;;11.30;99.90;;;;;;5045838;28;20006;-63
2023/04/19 10:35:59;;;;;;;;;;;11.30;99.90;;;;;;5044417;28;19936;-63
2023/04/19 10:38:43;;;;;;;;;;;11.40;99.90;;;;;;5041271;28;19925;-63
2023/04/19 10:41:15;;;;;;;;;;;11.50;99.90;;;;;;5043920;28;19932;-63
2023/04/19 10:44:07;;;;;;;;;;;11.50;99.90;;;;;;5038362;28;19932;-63
2023/04/19 10:46:34;;;;;;;;;;;11.60;99.90;;;;;;5040815;28;20020;-63
2023/04/19 10:49:08;;;;;;;;;;;11.60;99.90;;;;;;5045385;28;19928;-63
2023/04/19 10:51:46;;;;;;;;;;;11.60;99.90;;;;;;5037479;28;19932;-63
2023/04/19 10:54:32;;;;;;;;;;;11.70;99.90;;;;;;5042368;28;19931;-63
2023/04/19 10:57:10;;;;;;;;;;;11.70;99.90;;;;;;5039437;28;19925;-63
2023/04/19 10:59:37;;;;;;;;;;;11.70;99.90;;;;;;5044795;28;19933;-63
2023/04/19 11:02:21;;;;;;;;;;;11.60;99.90;;;;;;5036997;28;19929;-63
2023/04/19 11:04:53;;;;;;;;;;;11.60;99.90;;;;;;5036136;28;19936;-63
2023/04/19 11:07:24;;;;;;;;;;;11.60;99.90;;;;;;5044004;28;20435;-63
2023/04/19 11:09:56;;;;;;;;;;;11.60;99.90;;;;;;5039045;28;19925;-63
2023/04/19 11:12:28;;;;;;;;;;;11.60;99.90;;;;;;5033938;28;20393;-63
2023/04/19 11:15:00;;;;;;;;;;;11.60;99.90;;;;;;5038671;28;19951;-63
2023/04/19 11:17:31;;;;;;;;;;;11.50;99.90;;;;;;5040917;28;19940;-63
2023/04/19 11:20:07;;;;;;;;;;;11.50;99.90;;;;;;5042239;28;19929;-63
2023/04/19 11:22:39;;;;;;;;;;;11.40;99.90;;;;;;5032882;28;19933;-62
2023/04/19 11:25:16;;;;;;;;;;;11.30;99.90;;;;;;5032498;28;19994;-63
2023/04/19 11:27:49;;;;;;;;;;;11.30;99.90;;;;;;5034559;28;19933;-63
2023/04/19 11:30:28;;;;;;;;;;;11.20;99.90;;;;;;5030065;28;20459;-63
2023/04/19 11:33:00;;;;;;;;;;;11.10;99.90;;;;;;5028533;28;19971;-63
2023/04/19 11:35:31;;;;;;;;;;;11.00;99.90;;;;;;5022638;28;20321;-63
2023/04/19 11:38:04;;;;;;;;;;;10.90;99.90;;;;;;5035292;28;19929;-63
2023/04/19 11:40:36;;;;;;;;;;;10.90;99.90;;;;;;5037614;28;19955;-63
2023/04/19 11:43:07;;;;;;;;;;;10.80;99.90;;;;;;5042193;28;20326;-63
2023/04/19 11:45:39;;;;;;;;;;;10.70;99.90;;;;;;5034087;28;20389;-63
2023/04/19 11:48:14;;;;;;;;;;;10.70;99.90;;;;;;5034342;28;19979;-63
2023/04/19 11:50:48;;;;;;;;;;;10.60;99.90;;;;;;5033951;28;19945;-63
2023/04/19 11:53:21;;;;;;;;;;;10.50;99.90;;;;;;5030213;28;19955;-63
2023/04/19 11:55:47;;;;;;;;;;;10.40;99.90;;;;;;5032006;28;19990;-63
2023/04/19 11:58:22;;;;;;;;;;;10.20;99.90;;;;;;5033941;28;19929;-63
2023/04/19 12:01:01;;;;;;;;;;;10.00;99.90;;;;;;5039558;28;19936;-64
2023/04/19 12:03:33;;;;;;;;;;;10.00;99.90;;;;;;5028236;28;19929;-64
2023/04/19 12:06:09;;;;;;;;;;;10.00;99.90;;;;;;5035131;28;20561;-63
2023/04/19 12:08:43;;;;;;;;;;;10.00;99.90;;;;;;5033237;28;20011;-64
2023/04/19 12:11:09;;;;;;;;;;;10.00;99.90;;;;;;5036542;28;19928;-64
2023/04/19 12:13:36;;;;;;;;;;;10.00;99.90;;;;;;5036747;28;19933;-64
2023/04/19 12:16:08;;;;;;;;;;;10.00;99.90;;;;;;5030361;28;19983;-64
2023/04/19 12:18:45;;;;;;;;;;;10.10;99.90;;;;;;5030788;28;20112;-64
2023/04/19 12:21:23;;;;;;;;;;;10.10;99.90;;;;;;5035327;28;20340;-64
2023/04/19 12:23:52;;;;;;;;;;;10.10;99.90;;;;;;5038751;28;19935;-64
2023/04/19 12:26:25;;;;;;;;;;;10.10;99.90;;;;;;5031796;28;20415;-64
2023/04/19 12:28:56;;;;;;;;;;;10.10;99.90;;;;;;5037593;28;19925;-64
2023/04/19 12:31:31;;;;;;;;;;;10.10;99.90;;;;;;5034081;28;19935;-64
2023/04/19 12:34:02;;;;;;;;;;;10.20;99.90;;;;;;5037140;28;20392;-64
2023/04/19 12:36:34;;;;;;;;;;;10.20;99.90;;;;;;5034318;28;19979;-64
2023/04/19 12:39:06;;;;;;;;;;;10.20;99.90;;;;;;5035017;28;20574;-64
2023/04/19 12:41:39;;;;;;;;;;;10.30;99.90;;;;;;5035903;28;19932;-64
2023/04/19 12:44:14;;;;;;;;;;;10.10;99.90;;;;;;5033526;28;19933;-64
2023/04/19 12:46:46;;;;;;;;;;;10.10;99.90;;;;;;5038320;28;19932;-64
2023/04/19 12:49:18;;;;;;;;;;;10.00;99.90;;;;;;5035237;28;19983;-64
2023/04/19 12:51:50;;;;;;;;;;;9.90;99.90;;;;;;5035871;28;19936;-64
2023/04/19 12:54:22;;;;;;;;;;;9.80;99.90;;;;;;5033272;28;19986;-64
2023/04/19 12:56:53;;;;;;;;;;;9.70;99.90;;;;;;5037122;28;19925;-64
2023/04/19 12:59:25;;;;;;;;;;;9.70;99.90;;;;;;5037203;28;19925;-64
2023/04/19 13:01:57;;;;;;;;;;;9.60;99.90;;;;;;5030987;28;19968;-63
2023/04/19 13:04:29;;;;;;;;;;;9.60;99.90;;;;;;5032290;28;19929;-64
2023/04/19 13:07:00;;;;;;;;;;;9.60;99.90;;;;;;5029280;28;19988;-64
2023/04/19 13:09:32;;;;;;;;;;;9.50;99.90;;;;;;5036694;28;19936;-64
2023/04/19 13:11:59;;;;;;;;;;;9.60;99.90;;;;;;5035383;28;19925;-64
2023/04/19 13:14:31;;;;;;;;;;;9.60;99.90;;;;;;5040177;28;19928;-64
2023/04/19 13:17:02;;;;;;;;;;;9.60;99.90;;;;;;5034767;28;19925;-63
2023/04/19 13:19:34;;;;;;;;;;;9.60;99.90;;;;;;5033486;28;20454;-64
2023/04/19 13:22:06;;;;;;;;;;;9.50;99.90;;;;;;5019135;28;19932;-64
2023/04/19 13:24:38;;;;;;;;;;;9.50;99.90;;;;;;5034895;28;19940;-64
2023/04/19 13:27:04;;;;;;;;;;;9.40;99.90;;;;;;5032422;28;19954;-64
2023/04/19 13:29:31;;;;;;;;;;;9.40;99.90;;;;;;5039237;28;19929;-64
2023/04/19 13:32:06;;;;;;;;;;;9.30;99.90;;;;;;5040464;28;19971;-64
2023/04/19 13:34:41;;;;;;;;;;;9.30;99.90;;;;;;5040958;28;19933;-63
2023/04/19 13:37:13;;;;;;;;;;;9.20;99.90;;;;;;5043049;28;19936;-64
2023/04/19 13:39:45;;;;;;;;;;;9.20;99.90;;;;;;5042483;28;19935;-64
2023/04/19 13:42:17;;;;;;;;;;;9.10;99.90;;;;;;5041052;28;19933;-64
2023/04/19 13:44:49;;;;;;;;;;;9.10;99.90;;;;;;5040293;28;19929;-64
2023/04/19 13:47:21;;;;;;;;;;;9.20;99.90;;;;;;5043484;28;19929;-64
2023/04/19 13:49:52;;;;;;;;;;;9.10;99.90;;;;;;5039656;28;19929;-64
2023/04/19 13:52:19;;;;;;;;;;;9.10;99.90;;;;;;5036956;28;19925;-64
2023/04/19 13:54:51;;;;;;;;;;;9.00;99.90;;;;;;5040720;28;19929;-64
2023/04/19 13:57:18;;;;;;;;;;;9.00;99.90;;;;;;5038818;28;19933;-64
2023/04/19 13:59:50;;;;;;;;;;;8.90;99.90;;;;;;5029898;28;19933;-64
2023/04/19 14:02:22;;;;;;;;;;;8.90;99.90;;;;;;5040121;28;19932;-64
2023/04/19 14:04:57;;;;;;;;;;;8.90;99.90;;;;;;5042176;28;19925;-64
2023/04/19 14:07:24;;;;;;;;;;;8.90;99.90;;;;;;5042577;28;19925;-64
2023/04/19 14:09:56;;;;;;;;;;;8.90;99.90;;;;;;5048426;28;19924;-64
2023/04/19 14:12:22;;;;;;;;;;;8.90;99.90;;;;;;5049535;28;19948;-64
2023/04/19 14:14:54;;;;;;;;;;;8.80;99.90;;;;;;5041521;28;19971;-64
2023/04/19 14:17:26;;;;;;;;;;;8.80;99.90;;;;;;5039416;28;19924;-64
2023/04/19 14:19:58;;;;;;;;;;;8.90;99.90;;;;;;5039875;28;19940;-64
2023/04/19 14:22:30;;;;;;;;;;;8.90;99.90;;;;;;5038703;28;19929;-64
2023/04/19 14:25:02;;;;;;;;;;;8.80;99.90;;;;;;5041813;28;19982;-64
2023/04/19 14:27:34;;;;;;;;;;;8.80;99.90;;;;;;5042891;28;19924;-64
2023/04/19 14:30:06;;;;;;;;;;;8.70;99.90;;;;;;5041038;28;19925;-64
2023/04/19 14:32:38;;;;;;;;;;;8.60;99.90;;;;;;5046092;28;19932;-64
2023/04/19 14:35:10;;;;;;;;;;;8.50;99.90;;;;;;5048617;28;20008;-64
2023/04/19 14:37:42;;;;;;;;;;;8.50;99.90;;;;;;5042827;28;20301;-64
2023/04/19 14:40:14;;;;;;;;;;;8.50;99.90;;;;;;5050540;28;19980;-64
2023/04/19 14:42:46;;;;;;;;;;;8.40;99.90;;;;;;5046411;28;20364;-64
2023/04/19 14:45:19;;;;;;;;;;;8.40;99.90;;;;;;5040049;28;19932;-64
2023/04/19 14:47:51;;;;;;;;;;;8.30;99.90;;;;;;5040928;28;20471;-64
2023/04/19 14:50:22;;;;;;;;;;;8.20;99.90;;;;;;5026093;28;19925;-64
2023/04/19 14:52:54;;;;;;;;;;;8.20;99.90;;;;;;5039060;28;19925;-64
2023/04/19 14:55:26;;;;;;;;;;;8.30;99.90;;;;;;5042152;28;19925;-64
2023/04/19 14:57:58;;;;;;;;;;;8.20;99.90;;;;;;5041430;28;20317;-64